sensor_id;sensor_type;location;lat;lon;timestamp;temperature;humidity
41664;DHT22;27353;50.906;7.248;2022-10-31T00:01:31;12.50;99.90
41664;DHT22;27353;50.906;7.248;2022-10-31T00:03:57;12.50;99.90
41664;DHT22;27353;50.906;7.248;2022-10-31T00:06:23;12.40;99.90
41664;DHT22;27353;50.906;7.248;2022-10-31T00:08:55;12.50;99.90
41664;DHT22;27353;50.906;7.248;2022-10-31T00:11:22;12.40;99.90
41664;DHT22;27353;50.906;7.248;2022-10-31T00:13:47;12.40;99.90
41664;DHT22;27353;50.906;7.248;2022-10-31T00:16:21;12.40;99.90
41664;DHT22;27353;50.906;7.248;2022-10-31T00:18:51;12.30;99.90
41664;DHT22;27353;50.906;7.248;2022-10-31T00:21:17;12.30;99.90
41664;DHT22;27353;50.906;7.248;2022-10-31T00:23:42;12.30;99.90
41664;DHT22;27353;50.906;7.248;2022-10-31T00:26:08;12.30;99.90
41664;DHT22;27353;50.906;7.248;2022-10-31T00:28:34;12.30;99.90
41664;DHT22;27353;50.906;7.248;2022-10-31T00:31:00;12.20;99.90
41664;DHT22;27353;50.906;7.248;2022-10-31T00:33:26;12.20;99.90
41664;DHT22;27353;50.906;7.248;2022-10-31T00:35:52;12.20;99.90
41664;DHT22;27353;50.906;7.248;2022-10-31T00:38:18;12.10;99.90
41664;DHT22;27353;50.906;7.248;2022-10-31T00:40:43;12.20;99.90
41664;DHT22;27353;50.906;7.248;2022-10-31T00:43:09;12.20;99.90
41664;DHT22;27353;50.906;7.248;2022-10-31T00:45:34;12.20;99.90
41664;DHT22;27353;50.906;7.248;2022-10-31T00:48:00;12.20;99.90
41664;DHT22;27353;50.906;7.248;2022-10-31T00:50:26;12.20;99.90
41664;DHT22;27353;50.906;7.248;2022-10-31T00:52:51;12.20;99.90
41664;DHT22;27353;50.906;7.248;2022-10-31T00:55:17;12.20;99.90
41664;DHT22;27353;50.906;7.248;2022-10-31T00:57:42;12.20;99.90
41664;DHT22;27353;50.906;7.248;2022-10-31T01:00:11;12.10;99.90
41664;DHT22;27353;50.906;7.248;2022-10-31T01:02:37;12.00;99.90
41664;DHT22;27353;50.906;7.248;2022-10-31T01:05:02;12.10;99.90
41664;DHT22;27353;50.906;7.248;2022-10-31T01:07:28;12.10;99.90
41664;DHT22;27353;50.906;7.248;2022-10-31T01:09:53;12.10;99.90
41664;DHT22;27353;50.906;7.248;2022-10-31T01:12:19;12.10;99.90
41664;DHT22;27353;50.906;7.248;2022-10-31T01:14:45;12.10;99.90
41664;DHT22;27353;50.906;7.248;2022-10-31T01:17:12;12.10;99.90
41664;DHT22;27353;50.906;7.248;2022-10-31T01:19:38;12.10;99.90
41664;DHT22;27353;50.906;7.248;2022-10-31T01:22:03;12.10;99.90
41664;DHT22;27353;50.906;7.248;2022-10-31T01:24:29;12.20;99.90
41664;DHT22;27353;50.906;7.248;2022-10-31T01:26:54;12.20;99.90
41664;DHT22;27353;50.906;7.248;2022-10-31T01:29:20;12.20;99.90
41664;DHT22;27353;50.906;7.248;2022-10-31T01:31:45;12.10;99.90
41664;DHT22;27353;50.906;7.248;2022-10-31T01:34:16;12.10;99.90
41664;DHT22;27353;50.906;7.248;2022-10-31T01:36:43;11.90;99.90
41664;DHT22;27353;50.906;7.248;2022-10-31T01:39:12;11.90;99.90
41664;DHT22;27353;50.906;7.248;2022-10-31T01:41:41;11.80;99.90
41664;DHT22;27353;50.906;7.248;2022-10-31T01:49:26;11.80;99.90
41664;DHT22;27353;50.906;7.248;2022-10-31T01:52:04;11.70;99.90
41664;DHT22;27353;50.906;7.248;2022-10-31T01:54:33;11.70;99.90
41664;DHT22;27353;50.906;7.248;2022-10-31T01:57:02;11.70;99.90
41664;DHT22;27353;50.906;7.248;2022-10-31T01:59:30;11.70;99.90
41664;DHT22;27353;50.906;7.248;2022-10-31T02:01:57;11.70;99.90
41664;DHT22;27353;50.906;7.248;2022-10-31T02:04:24;11.70;99.90
41664;DHT22;27353;50.906;7.248;2022-10-31T02:09:22;11.80;99.90
41664;DHT22;27353;50.906;7.248;2022-10-31T02:11:54;11.80;99.90
41664;DHT22;27353;50.906;7.248;2022-10-31T02:14:22;11.80;99.90
41664;DHT22;27353;50.906;7.248;2022-10-31T02:16:49;11.80;99.90
41664;DHT22;27353;50.906;7.248;2022-10-31T02:19:21;11.80;99.90
41664;DHT22;27353;50.906;7.248;2022-10-31T02:22:05;11.80;99.90
41664;DHT22;27353;50.906;7.248;2022-10-31T02:30:06;11.80;99.90
41664;DHT22;27353;50.906;7.248;2022-10-31T02:38:24;11.80;99.90
41664;DHT22;27353;50.906;7.248;2022-10-31T02:41:22;11.80;99.90
41664;DHT22;27353;50.906;7.248;2022-10-31T02:44:11;11.80;99.90
41664;DHT22;27353;50.906;7.248;2022-10-31T02:54:40;11.80;99.90
41664;DHT22;27353;50.906;7.248;2022-10-31T02:57:07;11.70;99.90
41664;DHT22;27353;50.906;7.248;2022-10-31T02:59:35;11.70;99.90
41664;DHT22;27353;50.906;7.248;2022-10-31T03:02:12;11.80;99.90
41664;DHT22;27353;50.906;7.248;2022-10-31T03:10:38;11.70;99.90
41664;DHT22;27353;50.906;7.248;2022-10-31T03:15:39;11.70;99.90
41664;DHT22;27353;50.906;7.248;2022-10-31T03:20:56;11.60;99.90
41664;DHT22;27353;50.906;7.248;2022-10-31T03:23:25;11.60;99.90
41664;DHT22;27353;50.906;7.248;2022-10-31T03:25:53;11.60;99.90
41664;DHT22;27353;50.906;7.248;2022-10-31T03:28:23;11.60;99.90
41664;DHT22;27353;50.906;7.248;2022-10-31T03:30:52;11.60;99.90
41664;DHT22;27353;50.906;7.248;2022-10-31T03:33:22;11.60;99.90
41664;DHT22;27353;50.906;7.248;2022-10-31T03:35:52;11.50;99.90
41664;DHT22;27353;50.906;7.248;2022-10-31T03:38:19;11.40;99.90
41664;DHT22;27353;50.906;7.248;2022-10-31T03:40:46;11.40;99.90
41664;DHT22;27353;50.906;7.248;2022-10-31T03:43:25;11.40;99.90
41664;DHT22;27353;50.906;7.248;2022-10-31T03:45:51;11.30;99.90
41664;DHT22;27353;50.906;7.248;2022-10-31T03:48:19;11.30;99.90
41664;DHT22;27353;50.906;7.248;2022-10-31T03:51:11;11.30;99.90
41664;DHT22;27353;50.906;7.248;2022-10-31T03:53:44;11.30;99.90
41664;DHT22;27353;50.906;7.248;2022-10-31T03:56:50;11.20;99.90
41664;DHT22;27353;50.906;7.248;2022-10-31T03:59:13;11.20;99.90
41664;DHT22;27353;50.906;7.248;2022-10-31T04:01:44;11.20;99.90
41664;DHT22;27353;50.906;7.248;2022-10-31T04:04:11;11.20;99.90
41664;DHT22;27353;50.906;7.248;2022-10-31T04:06:39;11.30;99.90
41664;DHT22;27353;50.906;7.248;2022-10-31T04:09:06;11.20;99.90
41664;DHT22;27353;50.906;7.248;2022-10-31T04:11:36;11.20;99.90
41664;DHT22;27353;50.906;7.248;2022-10-31T04:14:04;11.20;99.90
41664;DHT22;27353;50.906;7.248;2022-10-31T04:16:31;11.20;99.90
41664;DHT22;27353;50.906;7.248;2022-10-31T04:18:56;11.30;99.90
41664;DHT22;27353;50.906;7.248;2022-10-31T04:21:29;11.30;99.90
41664;DHT22;27353;50.906;7.248;2022-10-31T04:23:55;11.30;99.90
41664;DHT22;27353;50.906;7.248;2022-10-31T04:26:21;11.30;99.90
41664;DHT22;27353;50.906;7.248;2022-10-31T04:28:47;11.30;99.90
41664;DHT22;27353;50.906;7.248;2022-10-31T04:31:13;11.20;99.90
41664;DHT22;27353;50.906;7.248;2022-10-31T04:33:39;11.20;99.90
41664;DHT22;27353;50.906;7.248;2022-10-31T04:36:05;11.20;99.90
41664;DHT22;27353;50.906;7.248;2022-10-31T04:38:30;11.10;99.90
41664;DHT22;27353;50.906;7.248;2022-10-31T04:40:56;11.10;99.90
41664;DHT22;27353;50.906;7.248;2022-10-31T04:43:22;11.00;99.90
41664;DHT22;27353;50.906;7.248;2022-10-31T04:45:47;11.00;99.90
41664;DHT22;27353;50.906;7.248;2022-10-31T04:48:13;11.00;99.90
41664;DHT22;27353;50.906;7.248;2022-10-31T04:50:39;11.00;99.90
41664;DHT22;27353;50.906;7.248;2022-10-31T04:53:05;11.00;99.90
41664;DHT22;27353;50.906;7.248;2022-10-31T04:55:30;11.00;99.90
41664;DHT22;27353;50.906;7.248;2022-10-31T04:57:57;11.00;99.90
41664;DHT22;27353;50.906;7.248;2022-10-31T05:00:23;11.00;99.90
41664;DHT22;27353;50.906;7.248;2022-10-31T05:02:54;11.00;99.90
41664;DHT22;27353;50.906;7.248;2022-10-31T05:05:22;11.00;99.90
41664;DHT22;27353;50.906;7.248;2022-10-31T05:07:49;11.00;99.90
41664;DHT22;27353;50.906;7.248;2022-10-31T05:10:17;10.90;99.90
41664;DHT22;27353;50.906;7.248;2022-10-31T05:12:48;10.90;99.90
41664;DHT22;27353;50.906;7.248;2022-10-31T05:15:14;10.90;99.90
41664;DHT22;27353;50.906;7.248;2022-10-31T05:17:40;10.90;99.90
41664;DHT22;27353;50.906;7.248;2022-10-31T05:20:06;10.80;99.90
41664;DHT22;27353;50.906;7.248;2022-10-31T05:22:32;10.80;99.90
41664;DHT22;27353;50.906;7.248;2022-10-31T05:24:58;10.80;99.90
41664;DHT22;27353;50.906;7.248;2022-10-31T05:27:23;10.80;99.90
41664;DHT22;27353;50.906;7.248;2022-10-31T05:29:49;10.80;99.90
41664;DHT22;27353;50.906;7.248;2022-10-31T05:32:14;10.80;99.90
41664;DHT22;27353;50.906;7.248;2022-10-31T05:34:40;10.90;99.90
41664;DHT22;27353;50.906;7.248;2022-10-31T05:37:05;10.90;99.90
41664;DHT22;27353;50.906;7.248;2022-10-31T05:39:31;10.90;99.90
41664;DHT22;27353;50.906;7.248;2022-10-31T05:41:57;10.90;99.90
41664;DHT22;27353;50.906;7.248;2022-10-31T05:44:22;10.90;99.90
41664;DHT22;27353;50.906;7.248;2022-10-31T05:46:48;10.90;99.90
41664;DHT22;27353;50.906;7.248;2022-10-31T05:49:13;11.00;99.90
41664;DHT22;27353;50.906;7.248;2022-10-31T05:51:39;11.00;99.90
41664;DHT22;27353;50.906;7.248;2022-10-31T05:54:04;11.00;99.90
41664;DHT22;27353;50.906;7.248;2022-10-31T05:56:30;10.90;99.90
41664;DHT22;27353;50.906;7.248;2022-10-31T05:58:56;10.90;99.90
41664;DHT22;27353;50.906;7.248;2022-10-31T06:01:21;10.90;99.90
41664;DHT22;27353;50.906;7.248;2022-10-31T06:03:47;10.90;99.90
41664;DHT22;27353;50.906;7.248;2022-10-31T06:06:13;10.90;99.90
41664;DHT22;27353;50.906;7.248;2022-10-31T06:08:38;10.90;99.90
41664;DHT22;27353;50.906;7.248;2022-10-31T06:11:04;10.90;99.90
41664;DHT22;27353;50.906;7.248;2022-10-31T06:13:30;10.90;99.90
41664;DHT22;27353;50.906;7.248;2022-10-31T06:15:55;10.80;99.90
41664;DHT22;27353;50.906;7.248;2022-10-31T06:18:21;10.80;99.90
41664;DHT22;27353;50.906;7.248;2022-10-31T06:20:46;10.80;99.90
41664;DHT22;27353;50.906;7.248;2022-10-31T06:23:12;10.80;99.90
41664;DHT22;27353;50.906;7.248;2022-10-31T06:25:37;10.80;99.90
41664;DHT22;27353;50.906;7.248;2022-10-31T06:28:03;10.80;99.90
41664;DHT22;27353;50.906;7.248;2022-10-31T06:30:29;10.70;99.90
41664;DHT22;27353;50.906;7.248;2022-10-31T06:32:54;10.80;99.90
41664;DHT22;27353;50.906;7.248;2022-10-31T06:35:26;10.80;99.90
41664;DHT22;27353;50.906;7.248;2022-10-31T06:37:55;10.80;99.90
41664;DHT22;27353;50.906;7.248;2022-10-31T06:40:21;10.80;99.90
41664;DHT22;27353;50.906;7.248;2022-10-31T06:42:46;10.90;99.90
41664;DHT22;27353;50.906;7.248;2022-10-31T06:45:12;10.90;99.90
41664;DHT22;27353;50.906;7.248;2022-10-31T06:47:38;11.00;99.90
41664;DHT22;27353;50.906;7.248;2022-10-31T06:50:04;11.10;99.90
41664;DHT22;27353;50.906;7.248;2022-10-31T06:52:29;11.20;99.90
41664;DHT22;27353;50.906;7.248;2022-10-31T06:54:55;11.30;99.90
41664;DHT22;27353;50.906;7.248;2022-10-31T06:57:21;11.30;99.90
41664;DHT22;27353;50.906;7.248;2022-10-31T06:59:46;11.40;99.90
41664;DHT22;27353;50.906;7.248;2022-10-31T07:02:12;11.40;99.90
41664;DHT22;27353;50.906;7.248;2022-10-31T07:04:37;11.50;99.90
41664;DHT22;27353;50.906;7.248;2022-10-31T07:07:03;11.50;99.90
41664;DHT22;27353;50.906;7.248;2022-10-31T07:09:29;11.60;99.90
41664;DHT22;27353;50.906;7.248;2022-10-31T07:11:54;11.70;99.90
41664;DHT22;27353;50.906;7.248;2022-10-31T07:14:20;11.80;99.90
41664;DHT22;27353;50.906;7.248;2022-10-31T07:16:51;11.80;99.90
41664;DHT22;27353;50.906;7.248;2022-10-31T07:19:17;11.90;99.90
41664;DHT22;27353;50.906;7.248;2022-10-31T07:21:43;12.00;99.90
41664;DHT22;27353;50.906;7.248;2022-10-31T07:24:08;12.00;99.90
41664;DHT22;27353;50.906;7.248;2022-10-31T07:26:34;12.00;99.90
41664;DHT22;27353;50.906;7.248;2022-10-31T07:28:59;12.10;99.90
41664;DHT22;27353;50.906;7.248;2022-10-31T07:31:25;12.20;99.90
41664;DHT22;27353;50.906;7.248;2022-10-31T07:33:51;12.20;99.90
41664;DHT22;27353;50.906;7.248;2022-10-31T07:36:16;12.40;99.90
41664;DHT22;27353;50.906;7.248;2022-10-31T07:38:42;12.40;99.90
41664;DHT22;27353;50.906;7.248;2022-10-31T07:41:08;12.50;99.90
41664;DHT22;27353;50.906;7.248;2022-10-31T07:43:34;12.60;99.90
41664;DHT22;27353;50.906;7.248;2022-10-31T07:45:59;12.60;99.90
41664;DHT22;27353;50.906;7.248;2022-10-31T07:48:25;12.70;99.90
41664;DHT22;27353;50.906;7.248;2022-10-31T07:50:51;12.80;99.90
41664;DHT22;27353;50.906;7.248;2022-10-31T07:53:16;12.90;99.90
41664;DHT22;27353;50.906;7.248;2022-10-31T07:55:42;13.00;99.90
41664;DHT22;27353;50.906;7.248;2022-10-31T07:58:10;13.20;99.90
41664;DHT22;27353;50.906;7.248;2022-10-31T08:00:37;13.20;99.90
41664;DHT22;27353;50.906;7.248;2022-10-31T08:03:12;13.40;99.90
41664;DHT22;27353;50.906;7.248;2022-10-31T08:05:38;13.50;99.90
41664;DHT22;27353;50.906;7.248;2022-10-31T08:08:06;13.70;99.90
41664;DHT22;27353;50.906;7.248;2022-10-31T08:10:33;13.80;99.90
41664;DHT22;27353;50.906;7.248;2022-10-31T08:13:03;14.00;99.90
41664;DHT22;27353;50.906;7.248;2022-10-31T08:15:30;14.20;99.90
41664;DHT22;27353;50.906;7.248;2022-10-31T08:17:55;14.40;99.90
41664;DHT22;27353;50.906;7.248;2022-10-31T08:20:21;14.60;99.90
41664;DHT22;27353;50.906;7.248;2022-10-31T08:23:03;14.80;99.90
41664;DHT22;27353;50.906;7.248;2022-10-31T08:25:31;15.10;99.90
41664;DHT22;27353;50.906;7.248;2022-10-31T08:27:57;15.30;99.90
41664;DHT22;27353;50.906;7.248;2022-10-31T08:30:25;15.40;99.90
41664;DHT22;27353;50.906;7.248;2022-10-31T08:35:27;15.50;99.90
41664;DHT22;27353;50.906;7.248;2022-10-31T08:37:54;15.60;99.90
41664;DHT22;27353;50.906;7.248;2022-10-31T08:40:20;15.60;99.90
41664;DHT22;27353;50.906;7.248;2022-10-31T08:42:46;15.70;99.90
41664;DHT22;27353;50.906;7.248;2022-10-31T08:45:11;15.60;99.90
41664;DHT22;27353;50.906;7.248;2022-10-31T08:47:37;15.60;99.90
41664;DHT22;27353;50.906;7.248;2022-10-31T08:50:03;15.50;99.90
41664;DHT22;27353;50.906;7.248;2022-10-31T08:52:28;15.30;99.90
41664;DHT22;27353;50.906;7.248;2022-10-31T08:54:54;15.30;99.90
41664;DHT22;27353;50.906;7.248;2022-10-31T08:57:19;15.30;99.90
41664;DHT22;27353;50.906;7.248;2022-10-31T08:59:45;15.30;99.90
41664;DHT22;27353;50.906;7.248;2022-10-31T09:02:11;15.30;99.90
41664;DHT22;27353;50.906;7.248;2022-10-31T09:04:36;15.30;99.90
41664;DHT22;27353;50.906;7.248;2022-10-31T09:07:02;15.30;99.90
41664;DHT22;27353;50.906;7.248;2022-10-31T09:09:27;15.20;99.90
41664;DHT22;27353;50.906;7.248;2022-10-31T09:11:53;15.20;99.90
41664;DHT22;27353;50.906;7.248;2022-10-31T09:14:18;15.30;99.90
41664;DHT22;27353;50.906;7.248;2022-10-31T09:16:44;15.30;99.90
41664;DHT22;27353;50.906;7.248;2022-10-31T09:19:10;15.30;99.90
41664;DHT22;27353;50.906;7.248;2022-10-31T09:21:35;15.30;99.90
41664;DHT22;27353;50.906;7.248;2022-10-31T09:24:01;15.40;99.90
41664;DHT22;27353;50.906;7.248;2022-10-31T09:26:26;15.50;99.90
41664;DHT22;27353;50.906;7.248;2022-10-31T09:28:52;15.40;99.90
41664;DHT22;27353;50.906;7.248;2022-10-31T09:31:17;15.60;99.90
41664;DHT22;27353;50.906;7.248;2022-10-31T09:33:43;15.80;99.90
41664;DHT22;27353;50.906;7.248;2022-10-31T09:36:09;16.10;99.90
41664;DHT22;27353;50.906;7.248;2022-10-31T09:38:34;16.70;99.90
41664;DHT22;27353;50.906;7.248;2022-10-31T09:46:58;18.80;99.90
41664;DHT22;27353;50.906;7.248;2022-10-31T09:52:30;20.60;99.90
41664;DHT22;27353;50.906;7.248;2022-10-31T09:55:16;21.40;99.90
41664;DHT22;27353;50.906;7.248;2022-10-31T09:57:44;22.50;99.90
41664;DHT22;27353;50.906;7.248;2022-10-31T10:00:21;23.60;99.90
41664;DHT22;27353;50.906;7.248;2022-10-31T10:02:53;24.70;99.90
41664;DHT22;27353;50.906;7.248;2022-10-31T10:05:27;25.90;94.20
41664;DHT22;27353;50.906;7.248;2022-10-31T10:08:21;26.50;92.40
41664;DHT22;27353;50.906;7.248;2022-10-31T10:16:21;26.10;88.60
41664;DHT22;27353;50.906;7.248;2022-10-31T10:18:52;26.50;87.30
41664;DHT22;27353;50.906;7.248;2022-10-31T10:27:41;25.60;88.90
41664;DHT22;27353;50.906;7.248;2022-10-31T10:30:13;25.40;91.10
41664;DHT22;27353;50.906;7.248;2022-10-31T10:32:53;25.80;90.90
41664;DHT22;27353;50.906;7.248;2022-10-31T10:35:24;25.30;90.10
41664;DHT22;27353;50.906;7.248;2022-10-31T10:37:56;25.30;90.60
41664;DHT22;27353;50.906;7.248;2022-10-31T10:40:27;24.90;91.20
41664;DHT22;27353;50.906;7.248;2022-10-31T10:59:27;22.90;97.60
41664;DHT22;27353;50.906;7.248;2022-10-31T11:01:54;21.80;99.90
41664;DHT22;27353;50.906;7.248;2022-10-31T11:04:35;21.80;99.90
41664;DHT22;27353;50.906;7.248;2022-10-31T11:07:07;21.70;99.90
41664;DHT22;27353;50.906;7.248;2022-10-31T11:09:34;21.60;99.90
41664;DHT22;27353;50.906;7.248;2022-10-31T11:12:05;21.40;99.90
41664;DHT22;27353;50.906;7.248;2022-10-31T11:14:43;21.50;99.90
41664;DHT22;27353;50.906;7.248;2022-10-31T11:17:24;21.50;99.90
41664;DHT22;27353;50.906;7.248;2022-10-31T11:20:00;21.60;99.90
41664;DHT22;27353;50.906;7.248;2022-10-31T11:22:26;21.90;99.90
41664;DHT22;27353;50.906;7.248;2022-10-31T11:24:52;21.80;99.90
41664;DHT22;27353;50.906;7.248;2022-10-31T11:27:22;22.30;99.90
41664;DHT22;27353;50.906;7.248;2022-10-31T11:29:49;22.70;99.90
41664;DHT22;27353;50.906;7.248;2022-10-31T11:32:27;23.20;99.90
41664;DHT22;27353;50.906;7.248;2022-10-31T11:35:00;23.40;99.40
41664;DHT22;27353;50.906;7.248;2022-10-31T11:37:29;22.80;99.90
41664;DHT22;27353;50.906;7.248;2022-10-31T11:39:58;22.50;99.90
41664;DHT22;27353;50.906;7.248;2022-10-31T11:42:30;22.50;99.90
41664;DHT22;27353;50.906;7.248;2022-10-31T11:45:03;22.50;99.90
41664;DHT22;27353;50.906;7.248;2022-10-31T11:47:31;22.40;99.90
41664;DHT22;27353;50.906;7.248;2022-10-31T11:50:02;22.00;99.90
41664;DHT22;27353;50.906;7.248;2022-10-31T11:52:30;21.70;99.90
41664;DHT22;27353;50.906;7.248;2022-10-31T11:57:33;21.80;99.90
41664;DHT22;27353;50.906;7.248;2022-10-31T12:02:48;22.10;99.90
41664;DHT22;27353;50.906;7.248;2022-10-31T12:05:26;22.00;99.90
41664;DHT22;27353;50.906;7.248;2022-10-31T12:07:56;21.90;99.90
41664;DHT22;27353;50.906;7.248;2022-10-31T12:10:34;21.40;99.90
41664;DHT22;27353;50.906;7.248;2022-10-31T12:19:14;21.70;99.90
41664;DHT22;27353;50.906;7.248;2022-10-31T12:25:00;22.80;99.90
41664;DHT22;27353;50.906;7.248;2022-10-31T12:30:14;22.90;99.90
41664;DHT22;27353;50.906;7.248;2022-10-31T12:35:44;23.30;99.90
41664;DHT22;27353;50.906;7.248;2022-10-31T12:54:25;21.90;99.90
41664;DHT22;27353;50.906;7.248;2022-10-31T12:59:40;22.40;99.90
41664;DHT22;27353;50.906;7.248;2022-10-31T13:02:25;22.30;99.90
41664;DHT22;27353;50.906;7.248;2022-10-31T13:07:44;21.30;99.90
41664;DHT22;27353;50.906;7.248;2022-10-31T13:10:18;21.10;99.90
41664;DHT22;27353;50.906;7.248;2022-10-31T13:12:48;20.60;99.90
41664;DHT22;27353;50.906;7.248;2022-10-31T13:15:26;20.20;99.90
41664;DHT22;27353;50.906;7.248;2022-10-31T13:18:01;19.90;99.90
41664;DHT22;27353;50.906;7.248;2022-10-31T13:20:39;19.70;99.90
41664;DHT22;27353;50.906;7.248;2022-10-31T13:23:14;19.60;99.90
41664;DHT22;27353;50.906;7.248;2022-10-31T13:25:47;19.50;99.90
41664;DHT22;27353;50.906;7.248;2022-10-31T13:30:55;19.30;99.90
41664;DHT22;27353;50.906;7.248;2022-10-31T13:33:32;19.20;99.90
41664;DHT22;27353;50.906;7.248;2022-10-31T13:36:05;19.00;99.90
41664;DHT22;27353;50.906;7.248;2022-10-31T13:44:11;19.30;99.90
41664;DHT22;27353;50.906;7.248;2022-10-31T13:46:40;19.20;99.90
41664;DHT22;27353;50.906;7.248;2022-10-31T13:51:50;19.30;99.90
41664;DHT22;27353;50.906;7.248;2022-10-31T13:54:23;19.20;99.90
41664;DHT22;27353;50.906;7.248;2022-10-31T13:56:56;19.20;99.90
41664;DHT22;27353;50.906;7.248;2022-10-31T13:59:23;19.10;99.90
41664;DHT22;27353;50.906;7.248;2022-10-31T14:01:53;19.00;99.90
41664;DHT22;27353;50.906;7.248;2022-10-31T14:04:22;19.00;99.90
41664;DHT22;27353;50.906;7.248;2022-10-31T14:07:13;18.90;99.90
41664;DHT22;27353;50.906;7.248;2022-10-31T14:09:54;18.80;99.90
41664;DHT22;27353;50.906;7.248;2022-10-31T14:12:29;18.80;99.90
41664;DHT22;27353;50.906;7.248;2022-10-31T14:15:21;18.70;99.90
41664;DHT22;27353;50.906;7.248;2022-10-31T14:17:56;18.50;99.90
41664;DHT22;27353;50.906;7.248;2022-10-31T14:20:34;18.60;99.90
41664;DHT22;27353;50.906;7.248;2022-10-31T14:28:48;18.40;99.90
41664;DHT22;27353;50.906;7.248;2022-10-31T14:31:39;18.40;99.90
41664;DHT22;27353;50.906;7.248;2022-10-31T14:34:27;18.40;99.90
41664;DHT22;27353;50.906;7.248;2022-10-31T14:45:17;18.40;99.90
41664;DHT22;27353;50.906;7.248;2022-10-31T14:48:04;18.40;99.90
41664;DHT22;27353;50.906;7.248;2022-10-31T14:53:30;18.40;99.90
41664;DHT22;27353;50.906;7.248;2022-10-31T14:55:57;18.40;99.90
41664;DHT22;27353;50.906;7.248;2022-10-31T14:58:28;18.40;99.90
41664;DHT22;27353;50.906;7.248;2022-10-31T15:00:57;18.30;99.90
41664;DHT22;27353;50.906;7.248;2022-10-31T15:05:56;18.30;99.90
41664;DHT22;27353;50.906;7.248;2022-10-31T15:10:58;18.20;99.90
41664;DHT22;27353;50.906;7.248;2022-10-31T15:13:23;18.20;99.90
41664;DHT22;27353;50.906;7.248;2022-10-31T15:15:54;18.20;99.90
41664;DHT22;27353;50.906;7.248;2022-10-31T15:18:21;18.20;99.90
41664;DHT22;27353;50.906;7.248;2022-10-31T15:20:48;18.20;99.90
41664;DHT22;27353;50.906;7.248;2022-10-31T15:23:20;18.20;99.90
41664;DHT22;27353;50.906;7.248;2022-10-31T15:25:46;18.20;99.90
41664;DHT22;27353;50.906;7.248;2022-10-31T15:28:14;18.10;99.90
41664;DHT22;27353;50.906;7.248;2022-10-31T15:30:40;18.10;99.90
41664;DHT22;27353;50.906;7.248;2022-10-31T15:33:20;18.00;99.90
41664;DHT22;27353;50.906;7.248;2022-10-31T15:36:03;18.10;99.90
41664;DHT22;27353;50.906;7.248;2022-10-31T15:38:29;18.00;99.90
41664;DHT22;27353;50.906;7.248;2022-10-31T15:41:06;17.90;99.90
41664;DHT22;27353;50.906;7.248;2022-10-31T15:43:44;17.90;99.90
41664;DHT22;27353;50.906;7.248;2022-10-31T15:46:11;17.80;99.90
41664;DHT22;27353;50.906;7.248;2022-10-31T15:48:37;17.70;99.90
41664;DHT22;27353;50.906;7.248;2022-10-31T15:51:03;17.70;99.90
41664;DHT22;27353;50.906;7.248;2022-10-31T15:53:56;17.60;99.90
41664;DHT22;27353;50.906;7.248;2022-10-31T15:56:28;17.50;99.90
41664;DHT22;27353;50.906;7.248;2022-10-31T15:58:55;17.50;99.90
41664;DHT22;27353;50.906;7.248;2022-10-31T16:01:27;17.50;99.90
41664;DHT22;27353;50.906;7.248;2022-10-31T16:06:33;17.40;99.90
41664;DHT22;27353;50.906;7.248;2022-10-31T16:08:59;17.30;99.90
41664;DHT22;27353;50.906;7.248;2022-10-31T16:11:36;17.30;99.90
41664;DHT22;27353;50.906;7.248;2022-10-31T16:16:42;17.20;99.90
41664;DHT22;27353;50.906;7.248;2022-10-31T16:21:43;17.10;99.90
41664;DHT22;27353;50.906;7.248;2022-10-31T16:24:17;17.00;99.90
41664;DHT22;27353;50.906;7.248;2022-10-31T16:26:52;16.90;99.90
41664;DHT22;27353;50.906;7.248;2022-10-31T16:29:27;16.80;99.90
41664;DHT22;27353;50.906;7.248;2022-10-31T16:31:53;16.80;99.90
41664;DHT22;27353;50.906;7.248;2022-10-31T16:34:22;16.70;99.90
41664;DHT22;27353;50.906;7.248;2022-10-31T16:36:48;16.70;99.90
41664;DHT22;27353;50.906;7.248;2022-10-31T16:39:14;16.60;99.90
41664;DHT22;27353;50.906;7.248;2022-10-31T16:41:41;16.50;99.90
41664;DHT22;27353;50.906;7.248;2022-10-31T16:44:26;16.40;99.90
41664;DHT22;27353;50.906;7.248;2022-10-31T16:47:15;16.40;99.90
41664;DHT22;27353;50.906;7.248;2022-10-31T16:49:42;16.40;99.90
41664;DHT22;27353;50.906;7.248;2022-10-31T16:52:07;16.50;99.90
41664;DHT22;27353;50.906;7.248;2022-10-31T16:54:33;16.70;99.90
41664;DHT22;27353;50.906;7.248;2022-10-31T16:56:59;16.60;99.90
41664;DHT22;27353;50.906;7.248;2022-10-31T16:59:26;16.60;99.90
41664;DHT22;27353;50.906;7.248;2022-10-31T17:01:53;16.60;99.90
41664;DHT22;27353;50.906;7.248;2022-10-31T17:04:19;16.60;99.90
41664;DHT22;27353;50.906;7.248;2022-10-31T17:06:45;16.60;99.90
41664;DHT22;27353;50.906;7.248;2022-10-31T17:09:10;16.50;99.90
41664;DHT22;27353;50.906;7.248;2022-10-31T17:11:38;16.60;99.90
41664;DHT22;27353;50.906;7.248;2022-10-31T17:14:05;16.60;99.90
41664;DHT22;27353;50.906;7.248;2022-10-31T17:16:31;16.60;99.90
41664;DHT22;27353;50.906;7.248;2022-10-31T17:18:56;16.60;99.90
41664;DHT22;27353;50.906;7.248;2022-10-31T17:21:23;16.50;99.90
41664;DHT22;27353;50.906;7.248;2022-10-31T17:23:50;16.40;99.90
41664;DHT22;27353;50.906;7.248;2022-10-31T17:26:16;16.40;99.90
41664;DHT22;27353;50.906;7.248;2022-10-31T17:28:41;16.30;99.90
41664;DHT22;27353;50.906;7.248;2022-10-31T17:31:19;16.20;99.90
41664;DHT22;27353;50.906;7.248;2022-10-31T17:33:44;16.30;99.90
41664;DHT22;27353;50.906;7.248;2022-10-31T17:36:10;16.20;99.90
41664;DHT22;27353;50.906;7.248;2022-10-31T17:38:37;16.10;99.90
41664;DHT22;27353;50.906;7.248;2022-10-31T17:41:06;16.00;99.90
41664;DHT22;27353;50.906;7.248;2022-10-31T17:43:32;16.00;99.90
41664;DHT22;27353;50.906;7.248;2022-10-31T17:46:01;16.00;99.90
41664;DHT22;27353;50.906;7.248;2022-10-31T17:48:27;16.10;99.90
41664;DHT22;27353;50.906;7.248;2022-10-31T17:50:53;16.10;99.90
41664;DHT22;27353;50.906;7.248;2022-10-31T17:53:19;16.10;99.90
41664;DHT22;27353;50.906;7.248;2022-10-31T17:55:45;16.00;99.90
41664;DHT22;27353;50.906;7.248;2022-10-31T17:58:10;16.00;99.90
41664;DHT22;27353;50.906;7.248;2022-10-31T18:00:39;16.00;99.90
41664;DHT22;27353;50.906;7.248;2022-10-31T18:03:06;15.90;99.90
41664;DHT22;27353;50.906;7.248;2022-10-31T18:05:32;15.80;99.90
41664;DHT22;27353;50.906;7.248;2022-10-31T18:07:58;15.70;99.90
41664;DHT22;27353;50.906;7.248;2022-10-31T18:10:24;15.50;99.90
41664;DHT22;27353;50.906;7.248;2022-10-31T18:12:49;15.50;99.90
41664;DHT22;27353;50.906;7.248;2022-10-31T18:15:15;15.70;99.90
41664;DHT22;27353;50.906;7.248;2022-10-31T18:17:42;15.60;99.90
41664;DHT22;27353;50.906;7.248;2022-10-31T18:20:08;15.60;99.90
41664;DHT22;27353;50.906;7.248;2022-10-31T18:22:34;15.50;99.90